Time;durP1;ratioP1;P1;durP2;ratioP2;P2;SDS_P1;SDS_P2;PMS_P1;PMS_P2;Temp;Humidity;BMP_temperature;BMP_pressure;BME280_temperature;BME280_humidity;BME280_pressure;Samples;Min_cycle;Max_cycle;Signal;HPM_P1;HPM_P2
2022/05/13 00:01:05;;;;;;;25.77;13.52;;;16.10;99.90;;;;;;4809868;29;20046;-89
2022/05/13 00:03:32;;;;;;;25.27;13.10;;;16.10;99.90;;;;;;4795805;30;20044;-89
2022/05/13 00:06:02;;;;;;;23.67;13.15;;;16.00;99.90;;;;;;4792351;30;20075;-89
2022/05/13 00:08:29;;;;;;;26.15;13.60;;;16.00;99.90;;;;;;4791232;30;20569;-89
2022/05/13 00:10:59;;;;;;;23.15;12.27;;;16.10;99.90;;;;;;4791370;30;20122;-89
2022/05/13 00:13:29;;;;;;;24.20;13.25;;;16.20;99.90;;;;;;4791602;29;20035;-89
2022/05/13 00:15:56;;;;;;;26.25;12.88;;;16.20;99.90;;;;;;4793026;30;20096;-90
2022/05/13 00:18:23;;;;;;;21.48;12.25;;;16.10;99.90;;;;;;4793621;30;20401;-89
2022/05/13 00:20:50;;;;;;;30.85;12.75;;;16.00;99.90;;;;;;4794386;30;20486;-90
2022/05/13 00:23:17;;;;;;;22.10;12.73;;;16.00;99.90;;;;;;4792766;30;20497;-90
2022/05/13 00:25:43;;;;;;;25.15;13.05;;;16.00;99.90;;;;;;4792912;30;20027;-90
2022/05/13 00:28:10;;;;;;;27.27;12.27;;;15.80;99.90;;;;;;4792951;30;20035;-90
2022/05/13 00:30:41;;;;;;;21.00;11.48;;;15.70;99.90;;;;;;4793437;30;20046;-89
2022/05/13 00:33:09;;;;;;;26.25;13.15;;;15.50;99.90;;;;;;4794030;30;20043;-90
2022/05/13 00:35:39;;;;;;;23.73;12.13;;;15.50;99.90;;;;;;4793423;30;20040;-90
2022/05/13 00:38:06;;;;;;;21.70;11.32;;;15.60;99.90;;;;;;4794460;30;20517;-89
2022/05/13 00:40:34;;;;;;;23.63;11.70;;;15.60;99.90;;;;;;4795354;30;20153;-89
2022/05/13 00:43:05;;;;;;;26.67;11.73;;;15.40;99.90;;;;;;4791910;30;20478;-89
2022/05/13 00:45:32;;;;;;;17.73;11.95;;;15.40;99.90;;;;;;4791671;30;20059;-90
2022/05/13 00:48:00;;;;;;;21.30;11.57;;;15.50;99.90;;;;;;4791850;30;20671;-88
2022/05/13 00:50:30;;;;;;;21.95;11.50;;;15.50;99.90;;;;;;4792328;30;20039;-88
2022/05/13 00:52:58;;;;;;;21.70;11.85;;;15.50;99.90;;;;;;4792321;30;20035;-89
2022/05/13 00:55:34;;;;;;;22.70;11.77;;;15.50;99.90;;;;;;4794103;30;20039;-90
2022/05/13 00:58:08;;;;;;;22.35;11.70;;;15.50;99.90;;;;;;4794725;30;20032;-90
2022/05/13 01:00:35;;;;;;;23.95;11.52;;;15.50;99.90;;;;;;4795195;30;20043;-89
2022/05/13 01:03:04;;;;;;;21.35;11.40;;;15.40;99.90;;;;;;4792707;30;20067;-89
2022/05/13 01:05:30;;;;;;;18.63;11.77;;;15.40;99.90;;;;;;4792622;29;20482;-90
2022/05/13 01:08:06;;;;;;;21.27;12.07;;;15.40;99.90;;;;;;4792439;30;20039;-89
2022/05/13 01:10:36;;;;;;;25.23;12.48;;;15.40;99.90;;;;;;4792663;30;20027;-88
2022/05/13 01:13:07;;;;;;;20.60;12.18;;;15.40;99.90;;;;;;4793176;30;20029;-89
2022/05/13 01:15:38;;;;;;;26.13;11.65;;;15.40;99.90;;;;;;4793027;30;20036;-89
2022/05/13 01:18:08;;;;;;;18.55;11.48;;;15.50;99.90;;;;;;4793266;30;20497;-90
2022/05/13 01:20:48;;;;;;;20.98;10.70;;;15.40;99.90;;;;;;4793093;30;20122;-89
2022/05/13 01:23:34;;;;;;;21.85;12.50;;;15.30;99.90;;;;;;4790224;29;20043;-86
2022/05/13 01:26:12;;;;;;;18.58;11.82;;;15.20;99.90;;;;;;4790359;30;20039;-89
2022/05/13 01:28:40;;;;;;;22.10;12.10;;;15.00;99.90;;;;;;4805767;29;20038;-90
2022/05/13 01:31:13;;;;;;;28.20;12.70;;;15.10;99.90;;;;;;4807079;29;20039;-88
2022/05/13 01:33:41;;;;;;;24.80;12.88;;;15.00;99.90;;;;;;4793691;30;20050;-90
2022/05/13 01:36:18;;;;;;;22.55;12.27;;;15.00;99.90;;;;;;4794826;30;20031;-89
2022/05/13 01:38:45;;;;;;;19.27;12.40;;;15.10;99.90;;;;;;4790604;30;20031;-90
2022/05/13 01:41:16;;;;;;;22.58;13.00;;;15.10;99.90;;;;;;4806317;29;20045;-89
2022/05/13 01:43:46;;;;;;;23.10;11.82;;;15.00;99.90;;;;;;4799802;29;20114;-90
2022/05/13 01:46:13;;;;;;;21.90;12.13;;;15.10;99.90;;;;;;4791663;30;20078;-90
2022/05/13 01:48:41;;;;;;;21.35;12.27;;;15.10;99.90;;;;;;4791162;30;20048;-89
2022/05/13 01:51:08;;;;;;;22.48;11.65;;;15.20;99.90;;;;;;4791213;29;20061;-88
2022/05/13 01:53:38;;;;;;;22.35;12.40;;;15.20;99.90;;;;;;4791130;29;20027;-89
2022/05/13 01:56:05;;;;;;;22.15;12.20;;;15.10;99.90;;;;;;4790510;30;20046;-89
2022/05/13 01:58:32;;;;;;;23.50;13.27;;;14.90;99.90;;;;;;4784608;30;20042;-90
2022/05/13 02:00:59;;;;;;;27.67;12.25;;;14.80;99.90;;;;;;4790494;30;20035;-89
2022/05/13 02:03:46;;;;;;;21.50;12.32;;;14.60;99.90;;;;;;4790531;30;20413;-88
2022/05/13 02:06:25;;;;;;;25.40;11.85;;;14.70;99.90;;;;;;4791395;30;20138;-88
2022/05/13 02:08:54;;;;;;;20.52;11.77;;;14.70;99.90;;;;;;4791536;29;20516;-89
2022/05/13 02:11:23;;;;;;;20.70;12.35;;;14.50;99.90;;;;;;4791765;30;20115;-89
2022/05/13 02:13:54;;;;;;;23.73;13.00;;;14.40;99.90;;;;;;4791658;30;20513;-89
2022/05/13 02:16:21;;;;;;;24.35;12.85;;;14.50;99.90;;;;;;4791793;30;20035;-88
2022/05/13 02:18:51;;;;;;;23.25;13.40;;;14.40;99.90;;;;;;4792853;30;20032;-89
2022/05/13 02:21:18;;;;;;;25.25;13.75;;;14.40;99.90;;;;;;4794359;29;20054;-89
2022/05/13 02:23:46;;;;;;;24.73;14.07;;;14.30;99.90;;;;;;4793888;30;20065;-90
2022/05/13 02:26:16;;;;;;;25.75;13.57;;;14.30;99.90;;;;;;4795456;30;20035;-89
2022/05/13 02:28:43;;;;;;;22.83;14.00;;;14.20;99.90;;;;;;4795789;30;20474;-89
2022/05/13 02:31:11;;;;;;;18.83;11.70;;;14.50;99.90;;;;;;4794839;30;20494;-89
2022/05/13 02:33:38;;;;;;;26.98;12.63;;;14.60;99.90;;;;;;4794053;30;20508;-90
2022/05/13 02:36:07;;;;;;;19.55;11.88;;;14.80;99.90;;;;;;4778956;30;20067;-89
2022/05/13 02:38:34;;;;;;;17.73;11.55;;;14.90;99.90;;;;;;4793909;30;20047;-90
2022/05/13 02:41:13;;;;;;;21.08;12.70;;;14.90;99.90;;;;;;4794389;30;20035;-89
2022/05/13 02:43:41;;;;;;;27.08;14.13;;;14.70;99.90;;;;;;4795394;30;20153;-89
2022/05/13 02:46:09;;;;;;;30.13;14.40;;;14.70;99.90;;;;;;4796436;29;20060;-89
2022/05/13 02:48:36;;;;;;;21.63;13.10;;;14.60;99.90;;;;;;4792178;30;20031;-90
2022/05/13 02:51:03;;;;;;;23.45;13.35;;;14.50;99.90;;;;;;4792718;30;20035;-89
2022/05/13 02:53:29;;;;;;;27.55;13.68;;;14.50;99.90;;;;;;4794962;30;20077;-88
2022/05/13 02:55:56;;;;;;;25.27;12.55;;;14.40;99.90;;;;;;4792997;30;20042;-89
2022/05/13 02:58:23;;;;;;;27.45;13.15;;;14.50;99.90;;;;;;4793936;30;20024;-89
2022/05/13 03:00:50;;;;;;;25.17;13.13;;;14.40;99.90;;;;;;4794288;30;20039;-89
2022/05/13 03:03:17;;;;;;;21.27;12.95;;;14.50;99.90;;;;;;4794855;30;20043;-89
2022/05/13 03:05:43;;;;;;;25.63;14.13;;;14.40;99.90;;;;;;4794916;30;20035;-90
2022/05/13 03:08:10;;;;;;;25.17;13.50;;;14.30;99.90;;;;;;4797431;30;20036;-89
2022/05/13 03:10:39;;;;;;;23.70;13.40;;;14.20;99.90;;;;;;4796706;30;20103;-90
2022/05/13 03:13:09;;;;;;;22.75;12.88;;;14.30;99.90;;;;;;4797217;30;20032;-89
2022/05/13 03:15:37;;;;;;;29.08;14.52;;;14.40;99.90;;;;;;4798803;30;20040;-90
2022/05/13 03:18:04;;;;;;;22.20;13.60;;;14.40;99.90;;;;;;4799234;30;20031;-89
2022/05/13 03:20:31;;;;;;;26.58;13.43;;;14.50;99.90;;;;;;4801232;29;20035;-90
2022/05/13 03:22:58;;;;;;;28.08;13.88;;;14.40;99.90;;;;;;4800835;29;20035;-89
2022/05/13 03:25:24;;;;;;;25.60;13.98;;;14.40;99.90;;;;;;4789573;30;20118;-86
2022/05/13 03:27:51;;;;;;;23.73;14.15;;;14.40;99.90;;;;;;4787786;30;20109;-86
2022/05/13 03:30:22;;;;;;;28.63;15.23;;;14.40;99.90;;;;;;4787572;30;20039;-88
2022/05/13 03:32:54;;;;;;;30.30;15.63;;;14.50;99.90;;;;;;4787791;30;20494;-87
2022/05/13 03:35:23;;;;;;;25.90;14.98;;;14.70;99.90;;;;;;4787784;30;20074;-88
2022/05/13 03:37:50;;;;;;;25.27;15.32;;;14.80;99.90;;;;;;4788326;30;20035;-89
2022/05/13 03:40:17;;;;;;;25.05;14.93;;;14.80;99.90;;;;;;4788165;30;20538;-85
2022/05/13 03:42:45;;;;;;;21.52;14.32;;;14.90;99.90;;;;;;4787490;30;20490;-87
2022/05/13 03:45:13;;;;;;;23.73;13.60;;;14.90;99.90;;;;;;4787134;30;20114;-88
2022/05/13 03:47:40;;;;;;;34.88;15.50;;;15.00;99.90;;;;;;4788709;29;20043;-88
2022/05/13 03:50:08;;;;;;;29.55;15.32;;;14.90;99.90;;;;;;4790841;30;20031;-88
2022/05/13 03:52:35;;;;;;;29.80;16.40;;;14.90;99.90;;;;;;4794489;30;20494;-88
2022/05/13 03:55:03;;;;;;;22.90;14.52;;;15.10;99.90;;;;;;4798211;30;20039;-89
2022/05/13 03:57:30;;;;;;;24.48;14.10;;;15.20;99.90;;;;;;4798738;30;20046;-88
2022/05/13 03:59:57;;;;;;;22.38;13.77;;;15.20;99.90;;;;;;4797940;30;20080;-89
2022/05/13 04:02:28;;;;;;;29.58;15.18;;;15.20;99.90;;;;;;4780353;30;20031;-89
2022/05/13 04:10:25;;;;;;;27.10;14.30;;;15.30;99.90;;;;;;4813184;29;20043;-89
2022/05/13 04:18:27;;;;;;;26.67;14.38;;;15.50;99.90;;;;;;4807796;30;20039;-89
2022/05/13 04:20:55;;;;;;;25.10;14.05;;;15.70;99.90;;;;;;4800244;30;20095;-89
2022/05/13 04:23:22;;;;;;;25.13;14.32;;;15.80;99.90;;;;;;4797702;30;20039;-89
2022/05/13 04:25:49;;;;;;;30.38;15.60;;;16.00;99.90;;;;;;4796905;30;20527;-88
2022/05/13 04:28:16;;;;;;;31.42;15.80;;;16.00;99.90;;;;;;4798060;29;20039;-89
2022/05/13 04:30:43;;;;;;;31.27;15.43;;;15.90;99.90;;;;;;4799706;30;20070;-89
2022/05/13 04:33:14;;;;;;;24.80;13.88;;;15.90;99.90;;;;;;4799752;30;20066;-89
2022/05/13 04:35:41;;;;;;;24.65;14.00;;;16.20;99.90;;;;;;4799866;30;20031;-89
2022/05/13 04:38:08;;;;;;;22.58;13.55;;;16.70;99.90;;;;;;4800470;30;20035;-88
2022/05/13 04:40:35;;;;;;;21.30;12.23;;;17.40;99.90;;;;;;4797289;30;20031;-89
2022/05/13 04:43:03;;;;;;;23.63;12.07;;;18.20;99.90;;;;;;4794991;30;20035;-90
2022/05/13 04:45:32;;;;;;;21.95;11.40;;;19.00;99.90;;;;;;4796914;29;20141;-90
2022/05/13 04:48:18;;;;;;;19.67;11.00;;;19.40;99.90;;;;;;4795554;29;20035;-90
2022/05/13 04:50:49;;;;;;;29.38;14.63;;;20.20;99.90;;;;;;4793693;30;20051;-90
2022/05/13 04:53:20;;;;;;;23.70;12.75;;;19.70;99.90;;;;;;4810880;29;20039;-91
2022/05/13 04:55:49;;;;;;;21.98;12.20;;;19.70;99.90;;;;;;4795784;30;20035;-91
2022/05/13 04:58:17;;;;;;;23.63;14.25;;;20.10;99.90;;;;;;4797327;29;20057;-90
2022/05/13 05:00:46;;;;;;;24.92;12.52;;;20.20;99.90;;;;;;4799401;30;20119;-91
2022/05/13 05:03:13;;;;;;;30.23;14.02;;;20.20;99.90;;;;;;4811711;29;20043;-90
2022/05/13 05:05:42;;;;;;;39.05;15.07;;;20.30;99.90;;;;;;4797041;30;20043;-89
2022/05/13 05:08:13;;;;;;;34.83;14.35;;;20.50;99.90;;;;;;4790391;30;20040;-90
2022/05/13 05:10:42;;;;;;;33.00;13.02;;;20.40;99.90;;;;;;4789894;30;20119;-90
2022/05/13 05:13:10;;;;;;;26.10;13.32;;;20.70;99.90;;;;;;4790822;30;20035;-90
2022/05/13 05:15:40;;;;;;;29.45;13.55;;;21.50;99.90;;;;;;4789446;30;20046;-91
2022/05/13 05:18:07;;;;;;;23.45;12.27;;;21.40;99.90;;;;;;4789532;30;20035;-92
2022/05/13 05:20:37;;;;;;;19.92;10.65;;;21.50;99.90;;;;;;4789803;30;20516;-92
2022/05/13 05:23:05;;;;;;;26.40;10.77;;;22.50;99.90;;;;;;4790032;30;20031;-91
2022/05/13 05:25:37;;;;;;;19.98;9.40;;;22.50;99.90;;;;;;4790276;29;20405;-91
2022/05/13 05:28:04;;;;;;;22.17;10.18;;;22.50;99.90;;;;;;4789075;30;20044;-94
2022/05/13 05:30:31;;;;;;;23.25;10.00;;;22.60;99.90;;;;;;4773825;30;20039;-92
2022/05/13 05:32:57;;;;;;;26.55;11.15;;;23.80;99.90;;;;;;4773759;30;20039;-92
2022/05/13 05:35:24;;;;;;;19.15;9.80;;;23.10;99.90;;;;;;4773600;30;20065;-89
2022/05/13 05:37:51;;;;;;;21.30;9.77;;;23.60;99.90;;;;;;4773312;30;20043;-89
2022/05/13 05:40:18;;;;;;;18.85;8.82;;;22.90;99.90;;;;;;4773866;30;20485;-89
2022/05/13 05:43:09;;;;;;;13.45;8.15;;;22.90;99.90;;;;;;4775080;30;20044;-92
2022/05/13 05:45:38;;;;;;;14.77;8.52;;;23.10;99.90;;;;;;4775193;30;20069;-91
2022/05/13 05:48:06;;;;;;;13.73;8.55;;;23.80;99.90;;;;;;4773683;30;20042;-91
2022/05/13 05:50:33;;;;;;;17.83;9.05;;;23.90;99.90;;;;;;4778202;30;20099;-89
2022/05/13 05:53:02;;;;;;;16.65;9.02;;;24.00;99.90;;;;;;4765467;30;20035;-90
2022/05/13 05:58:18;;;;;;;14.27;8.82;;;23.40;99.90;;;;;;4796147;29;20043;-90
2022/05/13 06:00:51;;;;;;;17.30;8.90;;;23.30;99.90;;;;;;4791370;29;20036;-91
2022/05/13 06:03:19;;;;;;;15.88;8.27;;;24.30;99.90;;;;;;4811551;29;20099;-89
2022/05/13 06:05:52;;;;;;;15.20;8.85;;;23.70;99.90;;;;;;4776280;29;20124;-89
2022/05/13 06:08:18;;;;;;;12.02;8.45;;;23.70;99.90;;;;;;4791208;29;20050;-90
2022/05/13 06:10:45;;;;;;;15.85;8.35;;;24.60;99.90;;;;;;4791050;29;20038;-90
2022/05/13 06:13:14;;;;;;;10.73;8.57;;;24.10;99.90;;;;;;4775810;29;20047;-90
2022/05/13 06:15:41;;;;;;;16.77;8.77;;;24.30;99.90;;;;;;4791927;29;20046;-90
2022/05/13 06:18:07;;;;;;;16.08;9.63;;;24.60;99.90;;;;;;4775789;29;20031;-90
2022/05/13 06:20:33;;;;;;;14.35;8.85;;;24.10;99.90;;;;;;4790712;29;20047;-89
2022/05/13 06:23:00;;;;;;;11.75;8.77;;;24.40;99.90;;;;;;4771766;29;20072;-90
2022/05/13 06:25:27;;;;;;;11.75;8.75;;;24.50;99.90;;;;;;4791008;29;20039;-89
2022/05/13 06:27:54;;;;;;;14.63;9.20;;;24.40;99.90;;;;;;4791775;29;20046;-90
2022/05/13 06:30:26;;;;;;;12.27;9.10;;;24.70;99.90;;;;;;4791029;29;20118;-90
2022/05/13 06:32:54;;;;;;;10.35;9.02;;;25.90;99.90;;;;;;4791546;29;20127;-90
2022/05/13 06:35:22;;;;;;;15.55;9.93;;;25.40;99.90;;;;;;4791201;29;20038;-90
2022/05/13 06:37:50;;;;;;;12.07;9.65;;;25.60;99.90;;;;;;4776805;29;20027;-90
2022/05/13 06:40:18;;;;;;;10.82;9.68;;;25.60;99.90;;;;;;4785465;30;20376;-90
2022/05/13 06:42:45;;;;;;;10.35;9.40;;;25.90;99.90;;;;;;4798817;29;20026;-90
2022/05/13 06:45:13;;;;;;;15.57;10.07;;;25.50;99.90;;;;;;4810403;29;20047;-89
2022/05/13 06:47:39;;;;;;;12.52;9.98;;;25.70;99.90;;;;;;4795581;29;20170;-90
2022/05/13 06:50:10;;;;;;;13.38;10.23;;;26.40;99.90;;;;;;4788109;30;20038;-92
2022/05/13 06:52:38;;;;;;;11.18;9.90;;;27.70;99.90;;;;;;4789447;30;20079;-90
2022/05/13 06:55:09;;;;;;;11.52;10.38;;;27.70;99.90;;;;;;4792129;30;20031;-89
2022/05/13 06:57:39;;;;;;;11.63;10.32;;;27.10;99.90;;;;;;4740379;30;20044;-90
2022/05/13 07:00:08;;;;;;;13.07;10.43;;;27.00;99.90;;;;;;4738952;30;20106;-90
2022/05/13 07:02:38;;;;;;;12.00;11.00;;;26.60;99.90;;;;;;4736902;30;20032;-90
2022/05/13 07:05:06;;;;;;;12.35;10.07;;;26.40;99.90;;;;;;4737015;30;20474;-91
2022/05/13 07:07:32;;;;;;;11.80;10.60;;;26.30;99.90;;;;;;4736922;30;20155;-90
2022/05/13 07:09:59;;;;;;;12.00;10.77;;;26.60;99.90;;;;;;4737071;30;20052;-90
2022/05/13 07:12:25;;;;;;;11.70;10.50;;;26.70;99.90;;;;;;4736798;30;20113;-92
2022/05/13 07:14:53;;;;;;;13.25;11.07;;;27.10;99.90;;;;;;4736884;30;20143;-90
2022/05/13 07:17:21;;;;;;;12.63;11.25;;;27.20;99.90;;;;;;4736806;30;20036;-90
2022/05/13 07:19:49;;;;;;;18.10;11.60;;;26.80;99.90;;;;;;4736751;30;20066;-91
2022/05/13 07:22:16;;;;;;;18.98;11.52;;;26.10;99.90;;;;;;4737207;30;20619;-90
2022/05/13 07:24:43;;;;;;;12.68;11.45;;;26.10;99.90;;;;;;4740230;30;20059;-90
2022/05/13 07:27:10;;;;;;;12.05;10.82;;;26.10;99.90;;;;;;4740201;30;20036;-90
2022/05/13 07:29:39;;;;;;;12.23;10.95;;;25.90;99.90;;;;;;4740461;30;20040;-91
2022/05/13 07:32:06;;;;;;;11.95;10.70;;;26.20;99.90;;;;;;4739962;30;20077;-89
2022/05/13 07:34:33;;;;;;;12.38;11.10;;;26.90;99.90;;;;;;4755808;30;20130;-90
2022/05/13 07:37:00;;;;;;;12.52;10.68;;;26.80;99.90;;;;;;4791174;30;20039;-89
2022/05/13 07:42:16;;;;;;;13.02;10.25;;;27.00;99.90;;;;;;4806146;29;20465;-88
2022/05/13 07:44:43;;;;;;;12.40;11.20;;;26.70;99.90;;;;;;4791747;29;20484;-90
2022/05/13 07:47:14;;;;;;;13.13;11.30;;;26.30;99.90;;;;;;4793913;29;20138;-90
2022/05/13 07:49:42;;;;;;;14.00;11.57;;;26.50;99.90;;;;;;4793912;29;20046;-90
2022/05/13 07:52:10;;;;;;;11.98;10.85;;;26.50;99.90;;;;;;4793703;29;20118;-90
2022/05/13 07:54:37;;;;;;;11.88;10.70;;;26.10;99.90;;;;;;4793581;29;20046;-89
2022/05/13 07:57:08;;;;;;;15.00;11.13;;;26.30;99.90;;;;;;4793736;29;20512;-90
2022/05/13 08:02:38;;;;;;;12.07;9.90;;;26.20;99.90;;;;;;4809798;29;20069;-86
2022/05/13 08:05:05;;;;;;;13.43;9.30;;;26.80;99.90;;;;;;4793638;29;20083;-87
2022/05/13 08:07:35;;;;;;;12.82;9.68;;;26.90;99.90;;;;;;4793765;29;20142;-87
2022/05/13 08:10:08;;;;;;;10.73;9.70;;;28.10;99.90;;;;;;4793480;29;20059;-88
2022/05/13 08:12:35;;;;;;;10.87;9.50;;;27.60;99.90;;;;;;4793865;29;20039;-88
2022/05/13 08:15:02;;;;;;;10.80;9.48;;;27.40;99.90;;;;;;4793911;29;20039;-87
2022/05/13 08:17:33;;;;;;;10.07;9.02;;;26.10;99.90;;;;;;4793902;29;20039;-87
2022/05/13 08:20:00;;;;;;;14.45;9.25;;;26.10;99.90;;;;;;4793993;29;20038;-87
2022/05/13 08:22:27;;;;;;;9.75;7.75;;;26.30;99.90;;;;;;4793954;29;20034;-87
2022/05/13 08:24:56;;;;;;;8.30;7.45;;;26.50;99.90;;;;;;4808736;29;20031;-86
2022/05/13 08:27:23;;;;;;;12.50;7.03;;;25.90;99.90;;;;;;4780874;29;20050;-85
2022/05/13 08:29:49;;;;;;;8.35;7.15;;;26.00;99.90;;;;;;4775262;30;20058;-85
2022/05/13 08:32:16;;;;;;;11.75;7.95;;;26.10;99.90;;;;;;4775147;30;20036;-85
2022/05/13 08:34:42;;;;;;;10.57;7.97;;;26.00;99.90;;;;;;4774759;30;20069;-85
2022/05/13 08:37:09;;;;;;;10.77;8.88;;;26.50;99.90;;;;;;4760869;30;20084;-86
2022/05/13 08:39:35;;;;;;;11.50;8.40;;;26.30;99.90;;;;;;4774913;30;20102;-85
2022/05/13 08:42:25;;;;;;;10.40;9.25;;;26.30;99.90;;;;;;4774765;30;20027;-85
2022/05/13 08:44:53;;;;;;;10.70;8.00;;;26.30;99.90;;;;;;4774686;30;20390;-85
2022/05/13 08:47:26;;;;;;;9.63;8.43;;;26.60;99.90;;;;;;4774460;30;20058;-84
2022/05/13 08:50:05;;;;;;;13.27;8.47;;;27.10;99.90;;;;;;4774900;30;20401;-85
2022/05/13 08:53:09;;;;;;;11.85;8.10;;;26.10;99.90;;;;;;4774727;30;20177;-85
2022/05/13 08:55:45;;;;;;;9.93;7.10;;;25.70;99.90;;;;;;4789591;30;20070;-85
2022/05/13 08:58:17;;;;;;;10.25;7.63;;;26.20;99.90;;;;;;4774753;30;20035;-85
2022/05/13 09:00:47;;;;;;;12.70;7.90;;;27.10;99.90;;;;;;4790513;30;20027;-85
2022/05/13 09:03:31;;;;;;;11.52;7.65;;;26.00;99.90;;;;;;4774584;30;20061;-85
2022/05/13 09:05:57;;;;;;;9.52;7.72;;;25.60;99.90;;;;;;4775314;30;20100;-85
2022/05/13 09:08:23;;;;;;;9.45;7.75;;;26.10;99.90;;;;;;4789363;30;20124;-85
2022/05/13 09:11:25;;;;;;;8.77;8.00;;;26.30;99.90;;;;;;4774782;30;20051;-85
2022/05/13 09:13:55;;;;;;;12.30;9.05;;;26.20;99.90;;;;;;4757636;30;20048;-84
2022/05/13 09:16:39;;;;;;;10.35;9.35;;;26.40;99.90;;;;;;4789143;30;20192;-85
2022/05/13 09:19:11;;;;;;;9.35;8.60;;;25.90;99.90;;;;;;4774204;30;20509;-84
2022/05/13 09:21:43;;;;;;;10.50;9.00;;;26.10;99.90;;;;;;4774137;30;20035;-84
2022/05/13 09:24:11;;;;;;;10.45;9.40;;;26.70;99.90;;;;;;4774105;30;20452;-84
2022/05/13 09:26:42;;;;;;;11.30;10.50;;;26.40;99.90;;;;;;4774339;30;20032;-84
2022/05/13 09:29:14;;;;;;;10.63;9.63;;;26.20;99.90;;;;;;4774062;30;20035;-84
2022/05/13 09:32:04;;;;;;;10.70;9.65;;;26.10;99.90;;;;;;4774012;30;20035;-84
2022/05/13 09:34:46;;;;;;;10.30;9.25;;;26.10;99.90;;;;;;4773920;30;20502;-84
2022/05/13 09:37:20;;;;;;;10.40;9.60;;;26.40;99.90;;;;;;4774031;30;20039;-84
2022/05/13 09:39:50;;;;;;;10.80;9.70;;;26.60;99.90;;;;;;4774135;30;20054;-88
2022/05/13 09:42:26;;;;;;;10.52;9.63;;;26.60;99.90;;;;;;4774089;30;20494;-88
2022/05/13 09:45:13;;;;;;;9.38;8.63;;;26.40;99.90;;;;;;4773228;30;20046;-89
2022/05/13 09:47:40;;;;;;;11.02;8.85;;;27.00;99.90;;;;;;4773901;30;20559;-89
2022/05/13 09:50:26;;;;;;;10.77;8.68;;;27.00;99.90;;;;;;4773856;30;20512;-88
2022/05/13 09:52:53;;;;;;;11.02;9.15;;;26.80;99.90;;;;;;4773882;30;20067;-89
2022/05/13 09:55:36;;;;;;;13.05;9.30;;;26.70;99.90;;;;;;4773827;30;20047;-88
2022/05/13 09:58:16;;;;;;;11.65;8.88;;;26.50;99.90;;;;;;4773912;30;20035;-90
2022/05/13 10:00:45;;;;;;;10.35;9.25;;;26.20;99.90;;;;;;4774019;30;20063;-89
2022/05/13 10:03:18;;;;;;;9.18;8.38;;;26.40;99.90;;;;;;4773745;30;20490;-89
2022/05/13 10:06:03;;;;;;;9.83;9.03;;;26.50;99.90;;;;;;4788543;30;20072;-89
2022/05/13 10:08:29;;;;;;;;;;;26.20;99.90;;;;;;4774004;30;20073;-88
2022/05/13 10:14:03;;;;;;;9.75;8.20;;;27.10;99.90;;;;;;4788437;30;20070;-88
2022/05/13 10:16:40;;;;;;;9.27;8.35;;;26.70;99.90;;;;;;4788495;30;20031;-89
2022/05/13 10:19:30;;;;;;;8.77;7.90;;;26.40;99.90;;;;;;4773492;30;20038;-88
2022/05/13 10:22:12;;;;;;;10.00;9.00;;;26.70;99.90;;;;;;4773542;30;20066;-89
2022/05/13 10:25:00;;;;;;;9.38;8.50;;;26.20;99.90;;;;;;4788316;30;20078;-88
2022/05/13 10:27:36;;;;;;;11.40;8.40;;;26.30;99.90;;;;;;4773249;30;20039;-86
2022/05/13 10:30:28;;;;;;;9.52;8.02;;;26.60;99.90;;;;;;4788172;30;20027;-87
2022/05/13 10:33:18;;;;;;;10.35;7.57;;;26.30;99.90;;;;;;4752192;30;20043;-88
2022/05/13 10:36:32;;;;;;;7.90;7.30;;;26.40;99.90;;;;;;4788083;30;20039;-87
2022/05/13 10:39:19;;;;;;;9.35;7.53;;;26.40;99.90;;;;;;4722656;30;20048;-87
2022/05/13 10:41:50;;;;;;;8.82;7.22;;;26.00;99.90;;;;;;4737094;30;20097;-87
2022/05/13 10:45:07;;;;;;;7.95;7.10;;;26.60;99.90;;;;;;4737043;30;20043;-87
2022/05/13 10:47:41;;;;;;;7.25;6.55;;;26.20;99.90;;;;;;4670583;30;20095;-88
2022/05/13 10:50:16;;;;;;;8.82;6.80;;;26.30;99.90;;;;;;4684903;30;20181;-88
2022/05/13 10:53:05;;;;;;;14.02;7.95;;;26.40;99.90;;;;;;4684776;30;20073;-87
2022/05/13 10:55:58;;;;;;;7.90;7.15;;;27.00;99.90;;;;;;4685233;30;20074;-85
2022/05/13 10:59:01;;;;;;;7.70;6.90;;;26.50;99.90;;;;;;4688691;30;20116;-86
2022/05/13 11:01:42;;;;;;;7.15;6.45;;;25.70;99.90;;;;;;4620661;31;20051;-88
2022/05/13 11:04:33;;;;;;;7.00;6.43;;;26.20;99.90;;;;;;4620648;31;20054;-88
2022/05/13 11:07:34;;;;;;;6.97;6.45;;;26.00;99.90;;;;;;4620507;31;20055;-89
2022/05/13 11:10:42;;;;;;;10.20;6.97;;;26.80;99.90;;;;;;4621098;31;20051;-87
2022/05/13 11:14:00;;;;;;;9.25;7.25;;;26.90;99.90;;;;;;4604992;31;20104;-85
2022/05/13 11:16:41;;;;;;;7.28;6.55;;;26.90;99.90;;;;;;4637115;30;20146;-84
2022/05/13 11:19:23;;;;;;;6.68;6.07;;;26.20;99.90;;;;;;4637182;30;20213;-85
2022/05/13 11:22:02;;;;;;;8.23;6.85;;;26.20;99.90;;;;;;4622947;30;20130;-86
2022/05/13 11:28:00;;;;;;;7.88;7.28;;;26.70;99.90;;;;;;4670765;30;20038;-89
2022/05/13 11:30:46;;;;;;;8.63;7.70;;;26.40;99.90;;;;;;4671115;30;20050;-85
2022/05/13 11:33:30;;;;;;;8.68;7.47;;;26.10;99.90;;;;;;4670823;30;20045;-88
2022/05/13 11:36:09;;;;;;;7.93;7.28;;;26.10;99.90;;;;;;4671029;30;20611;-86
2022/05/13 11:38:48;;;;;;;8.27;7.50;;;26.00;99.90;;;;;;4715286;30;20045;-86
2022/05/13 11:41:18;;;;;;;8.55;7.88;;;26.20;99.90;;;;;;4708527;30;20098;-87
2022/05/13 11:44:06;;;;;;;10.95;7.43;;;26.80;99.90;;;;;;4720896;30;20041;-88
2022/05/13 11:46:52;;;;;;;9.50;8.43;;;26.70;99.90;;;;;;4721710;30;20053;-89
2022/05/13 11:49:32;;;;;;;9.45;8.65;;;26.90;99.90;;;;;;4710110;30;20060;-89
2022/05/13 11:52:28;;;;;;;9.15;8.32;;;27.30;99.90;;;;;;4790795;30;20135;-90
2022/05/13 11:55:15;;;;;;;10.38;9.38;;;26.70;99.90;;;;;;4774088;30;20116;-87
2022/05/13 11:57:44;;;;;;;11.23;9.15;;;26.70;99.90;;;;;;4790603;30;20043;-88
2022/05/13 12:00:40;;;;;;;10.10;9.30;;;26.80;99.90;;;;;;4775921;30;20043;-89
2022/05/13 12:03:12;;;;;;;11.07;10.07;;;26.40;99.90;;;;;;4791557;29;20027;-90
2022/05/13 12:05:50;;;;;;;10.80;9.82;;;27.00;99.90;;;;;;4764812;30;20503;-90
2022/05/13 12:08:38;;;;;;;11.82;10.85;;;27.10;99.90;;;;;;4797072;29;20031;-91
2022/05/13 12:11:15;;;;;;;11.38;10.48;;;26.70;99.90;;;;;;4763857;30;20032;-91
2022/05/13 12:13:42;;;;;;;10.68;9.88;;;26.70;99.90;;;;;;4761882;30;20039;-90
2022/05/13 12:17:00;;;;;;;11.55;10.48;;;26.80;99.90;;;;;;4790359;30;20035;-90
2022/05/13 12:19:27;;;;;;;10.27;9.48;;;26.80;99.90;;;;;;4718867;30;20091;-90
2022/05/13 12:22:21;;;;;;;10.15;9.40;;;26.60;99.90;;;;;;4704781;30;20048;-92
2022/05/13 12:24:57;;;;;;;10.40;9.60;;;26.80;99.90;;;;;;4719090;30;20044;-91
2022/05/13 12:27:32;;;;;;;9.75;8.95;;;26.70;99.90;;;;;;4719113;30;20149;-91
2022/05/13 12:30:00;;;;;;;10.57;9.52;;;26.70;99.90;;;;;;4705777;30;20036;-91
2022/05/13 12:32:46;;;;;;;11.38;10.40;;;26.50;99.90;;;;;;4719272;30;20511;-91
2022/05/13 12:38:10;;;;;;;11.98;9.60;;;26.60;99.90;;;;;;4704508;30;20037;-91
2022/05/13 12:41:11;;;;;;;10.93;9.95;;;26.60;99.90;;;;;;4719533;30;20041;-92
2022/05/13 12:44:06;;;;;;;10.23;9.50;;;26.70;99.90;;;;;;4701884;30;20041;-91
2022/05/13 12:46:46;;;;;;;11.38;10.30;;;26.70;99.90;;;;;;4705869;30;20053;-91
2022/05/13 12:49:20;;;;;;;10.88;9.98;;;26.40;99.90;;;;;;4705036;30;20087;-91
2022/05/13 12:52:01;;;;;;;10.40;9.80;;;26.10;99.90;;;;;;4704697;30;20037;-91
2022/05/13 12:54:35;;;;;;;10.88;10.02;;;26.40;99.90;;;;;;4775645;30;20056;-90
2022/05/13 12:57:13;;;;;;;11.55;10.65;;;26.50;99.90;;;;;;4790635;30;20037;-90
2022/05/13 12:59:42;;;;;;;11.50;10.60;;;26.80;99.90;;;;;;4791378;30;20043;-91
2022/05/13 13:02:10;;;;;;;10.90;10.02;;;27.00;99.90;;;;;;4775351;30;20027;-91
2022/05/13 13:05:01;;;;;;;11.35;10.25;;;27.30;99.90;;;;;;4774867;30;20039;-89
2022/05/13 13:07:32;;;;;;;11.98;11.10;;;26.90;99.90;;;;;;4775478;30;20402;-93
2022/05/13 13:09:59;;;;;;;11.40;10.32;;;27.00;99.90;;;;;;4775014;30;20035;-92
2022/05/13 13:12:42;;;;;;;11.18;10.27;;;26.40;99.90;;;;;;4789454;30;20502;-92
2022/05/13 13:15:30;;;;;;;11.20;10.45;;;26.30;99.90;;;;;;4789559;30;20395;-92
2022/05/13 13:17:58;;;;;;;11.27;10.38;;;26.60;99.90;;;;;;4776131;30;20486;-93
2022/05/13 13:20:28;;;;;;;12.65;11.40;;;27.00;99.90;;;;;;4774871;30;20039;-92
2022/05/13 13:23:04;;;;;;;12.23;11.32;;;26.50;99.90;;;;;;4789487;30;20070;-91
2022/05/13 13:25:57;;;;;;;12.38;11.43;;;26.80;99.90;;;;;;4789573;30;20058;-92
2022/05/13 13:28:28;;;;;;;11.80;10.80;;;26.70;99.90;;;;;;4772027;30;20486;-94
2022/05/13 13:30:59;;;;;;;12.25;11.35;;;26.60;99.90;;;;;;4789173;30;20043;-92